Time,TemperatureF,DewpointF,PressureIn,WindDirection,WindDirectionDegrees,WindSpeedMPH,WindSpeedGustMPH,Humidity,HourlyPrecipIn,Conditions,Clouds,dailyrainin,SolarRadiationWatts/m^2,SoftwareType,DateUTC
2013-04-08 00:00:00,39.1,35.0,29.85,NW,318,0.0,1.0,85,0.00, +SHSN,FEW,0.00,0.0,WeatherDisplay:10.37,2013-04-08 04:00:00,
2013-04-08 00:05:00,40.1,35.0,29.85,NW,318,0.0,0.0,82,0.00,CLR,FEW,0.00,0.0,WeatherDisplay:10.37,2013-04-08 04:05:00,
2013-04-08 00:10:00,40.7,35.3,29.85,East,88,3.5,4.6,81,0.00,CLR,FEW,0.00,0.0,WeatherDisplay:10.37,2013-04-08 04:10:00,
2013-04-08 00:15:00,41.5,35.5,29.85,East,92,1.8,3.5,79,0.00,CLR,FEW,0.00,0.0,WeatherDisplay:10.37,2013-04-08 04:15:00,
2013-04-08 00:20:00,41.8,35.1,29.85,East,92,0.0,0.0,77,0.00,CLR,FEW,0.00,0.0,WeatherDisplay:10.37,2013-04-08 04:20:00,
2013-04-08 00:25:00,42.5,35.5,29.84,East,91,0.0,0.0,76,0.00,CLR,FEW,0.00,0.0,WeatherDisplay:10.37,2013-04-08 04:25:00,
2013-04-08 00:30:00,42.8,35.4,29.84,East,100,1.3,2.3,75,0.00,CLR,FEW,0.00,0.0,WeatherDisplay:10.37,2013-04-08 04:30:00,
2013-04-08 00:35:00,42.8,35.4,29.84,East,99,0.1,1.2,75,0.00,CLR,FEW,0.00,0.0,WeatherDisplay:10.37,2013-04-08 04:35:00,
2013-04-08 00:40:00,42.6,35.2,29.85,East,87,0.0,0.0,75,0.00,CLR,FEW,0.00,0.0,WeatherDisplay:10.37,2013-04-08 04:40:00,
2013-04-08 00:45:00,43.0,35.6,29.85,East,88,0.0,0.0,75,0.00,CLR,FEW,0.00,0.0,WeatherDisplay:10.37,2013-04-08 04:45:00,
2013-04-08 00:50:00,43.0,35.6,29.85,East,87,0.1,2.3,75,0.00,CLR,FEW,0.00,0.0,WeatherDisplay:10.37,2013-04-08 04:50:00,
2013-04-08 00:55:00,43.1,35.4,29.84,East,101,0.0,1.2,74,0.00,CLR,FEW,0.00,0.0,WeatherDisplay:10.37,2013-04-08 04:55:00,
2013-04-08 01:00:00,43.2,35.5,29.84,East,101,0.2,1.2,74,0.00,CLR,FEW,0.00,0.0,WeatherDisplay:10.37,2013-04-08 05:00:00,
2013-04-08 01:05:00,42.8,35.1,29.84,East,101,0.0,1.2,74,0.00,CLR,FEW,0.00,0.0,WeatherDisplay:10.37,2013-04-08 05:05:00,
2013-04-08 01:10:00,42.6,35.6,29.83,East,101,0.0,0.0,76,0.00,CLR,FEW,0.00,0.0,WeatherDisplay:10.37,2013-04-08 05:10:00,
2013-04-08 01:15:00,42.5,35.5,29.83,East,101,1.1,2.3,76,0.00,CLR,FEW,0.00,0.0,WeatherDisplay:10.37,2013-04-08 05:15:00,
2013-04-08 01:20:00,42.4,35.4,29.83,East,101,0.1,2.3,76,0.00,CLR,FEW,0.00,0.0,WeatherDisplay:10.37,2013-04-08 05:20:00,
2013-04-08 01:25:00,42.6,35.6,29.83,East,101,0.4,1.2,76,0.00,CLR,FEW,0.00,0.0,WeatherDisplay:10.37,2013-04-08 05:25:00,
2013-04-08 01:30:00,43.2,36.5,29.83,SW,218,0.8,0.0,77,0.00,CLR,FEW,0.00,0.0,WeatherDisplay:10.37,2013-04-08 05:30:00,
2013-04-08 01:36:00,43.7,36.3,29.83,West,265,1.1,3.5,75,0.00,CLR,FEW,0.00,0.0,WeatherDisplay:10.37,2013-04-08 05:36:00,
2013-04-08 01:41:00,43.8,36.7,29.82,NNE,26,0.5,3.5,76,0.00,CLR,FEW,0.00,0.0,WeatherDisplay:10.37,2013-04-08 05:41:00,
2013-04-08 01:46:00,44.1,37.0,29.82,NE,46,0.0,0.0,76,0.00,CLR,FEW,0.00,0.0,WeatherDisplay:10.37,2013-04-08 05:46:00,
2013-04-08 01:51:00,44.8,37.4,29.82,East,88,0.5,3.5,75,0.00,CLR,FEW,0.00,0.0,WeatherDisplay:10.37,2013-04-08 05:51:00,
2013-04-08 01:56:00,45.0,37.6,29.82,East,88,0.0,0.0,75,0.00,CLR,FEW,0.00,0.0,WeatherDisplay:10.37,2013-04-08 05:56:00,
2013-04-08 02:01:00,44.9,37.1,29.82,NW,319,2.0,3.5,74,0.00,CLR,FEW,0.00,0.0,WeatherDisplay:10.37,2013-04-08 06:01:00,
2013-04-08 02:06:00,44.2,36.4,29.82,NW,319,0.0,2.3,74,0.00,CLR,FEW,0.00,0.0,WeatherDisplay:10.37,2013-04-08 06:06:00,
2013-04-08 02:11:00,43.3,36.6,29.81,NW,319,0.6,2.3,77,0.00,CLR,FEW,0.00,0.0,WeatherDisplay:10.37,2013-04-08 06:11:00,
2013-04-08 02:16:00,43.7,37.0,29.81,NW,319,0.0,2.3,77,0.00,CLR,FEW,0.00,0.0,WeatherDisplay:10.37,2013-04-08 06:16:00,
2013-04-08 02:21:00,43.5,36.8,29.81,NW,319,0.0,0.0,77,0.00,CLR,FEW,0.00,0.0,WeatherDisplay:10.37,2013-04-08 06:21:00,
2013-04-08 02:26:00,43.7,37.0,29.81,NW,319,0.0,1.2,77,0.00,CLR,FEW,0.00,0.0,WeatherDisplay:10.37,2013-04-08 06:26:00,
2013-04-08 02:32:00,43.5,37.1,29.81,NW,319,0.0,0.0,78,0.00,CLR,FEW,0.00,0.0,WeatherDisplay:10.37,2013-04-08 06:32:00,
2013-04-08 02:37:00,42.9,36.5,29.81,NW,319,0.0,0.0,78,0.00,CLR,FEW,0.00,0.0,WeatherDisplay:10.37,2013-04-08 06:37:00,
2013-04-08 02:42:00,42.5,36.4,29.81,North,360,0.0,0.0,79,0.00,CLR,FEW,0.00,0.0,WeatherDisplay:10.37,2013-04-08 06:42:00,
2013-04-08 02:47:00,42.4,36.7,29.81,ESE,109,0.0,0.0,80,0.00,CLR,FEW,0.00,0.0,WeatherDisplay:10.37,2013-04-08 06:47:00,
2013-04-08 02:52:00,42.1,36.4,29.80,ESE,109,0.0,0.0,80,0.00,CLR,FEW,0.00,0.0,WeatherDisplay:10.37,2013-04-08 06:52:00,
2013-04-08 02:57:00,42.3,36.9,29.80,ESE,114,0.1,1.2,81,0.00,CLR,FEW,0.00,0.0,WeatherDisplay:10.37,2013-04-08 06:57:00,
2013-04-08 03:02:00,42.6,37.2,29.80,WSW,246,0.0,0.0,81,0.00,CLR,FEW,0.00,0.0,WeatherDisplay:10.37,2013-04-08 07:02:00,
2013-04-08 03:07:00,42.7,37.3,29.80,WSW,246,0.3,1.2,81,0.00,CLR,FEW,0.00,0.0,WeatherDisplay:10.37,2013-04-08 07:07:00,
2013-04-08 03:12:00,43.0,37.6,29.80,WSW,245,0.0,0.0,81,0.00,CLR,FEW,0.00,0.0,WeatherDisplay:10.37,2013-04-08 07:12:00,
2013-04-08 03:17:00,43.4,37.6,29.80,WSW,246,0.0,0.0,80,0.00,CLR,FEW,0.00,0.0,WeatherDisplay:10.37,2013-04-08 07:17:00,
2013-04-08 03:22:00,43.4,37.6,29.80,WSW,242,1.1,3.0,80,0.00,CLR,FEW,0.00,0.0,WeatherDisplay:10.37,2013-04-08 07:22:00,
2013-04-08 03:27:00,44.1,38.3,29.80,WSW,250,0.0,1.2,80,0.00,CLR,FEW,0.00,0.0,WeatherDisplay:10.37,2013-04-08 07:27:00,
2013-04-08 03:32:00,44.6,38.2,29.80,WSW,250,0.0,0.0,78,0.00,CLR,FEW,0.00,0.0,WeatherDisplay:10.37,2013-04-08 07:32:00,
2013-04-08 03:37:00,44.5,38.1,29.79,WSW,255,0.1,3.5,78,0.00,CLR,FEW,0.00,0.0,WeatherDisplay:10.37,2013-04-08 07:37:00,
2013-04-08 03:42:00,44.6,38.2,29.79,WSW,249,1.1,2.3,78,0.00,CLR,FEW,0.00,0.0,WeatherDisplay:10.37,2013-04-08 07:42:00,
2013-04-08 03:47:00,44.8,38.4,29.79,WSW,253,0.0,0.0,78,0.00,CLR,FEW,0.00,0.0,WeatherDisplay:10.37,2013-04-08 07:47:00,
2013-04-08 03:52:00,44.9,38.5,29.80,WSW,256,2.6,3.5,78,0.00,CLR,FEW,0.00,0.0,WeatherDisplay:10.37,2013-04-08 07:52:00,
2013-04-08 03:57:00,44.6,37.8,29.80,WSW,257,0.9,3.5,77,0.00,CLR,FEW,0.00,0.0,WeatherDisplay:10.37,2013-04-08 07:57:00,
2013-04-08 04:02:00,43.9,37.5,29.80,WSW,256,0.5,2.3,78,0.00,CLR,FEW,0.00,0.0,WeatherDisplay:10.37,2013-04-08 08:02:00,
2013-04-08 04:07:00,43.1,37.0,29.80,WSW,257,0.0,0.0,79,0.00,CLR,FEW,0.00,0.0,WeatherDisplay:10.37,2013-04-08 08:07:00,
2013-04-08 04:12:00,42.2,36.5,29.80,WSW,257,0.3,1.2,80,0.00,CLR,FEW,0.00,0.0,WeatherDisplay:10.37,2013-04-08 08:12:00,
2013-04-08 04:17:00,41.5,35.8,29.80,West,278,4.2,4.6,80,0.00,CLR,FEW,0.00,0.0,WeatherDisplay:10.37,2013-04-08 08:17:00,
2013-04-08 04:22:00,40.3,34.6,29.81,West,279,2.7,3.5,80,0.00,CLR,FEW,0.00,0.0,WeatherDisplay:10.37,2013-04-08 08:22:00,
2013-04-08 04:27:00,38.5,33.8,29.81,West,279,0.0,0.0,83,0.00,CLR,FEW,0.00,0.0,WeatherDisplay:10.37,2013-04-08 08:27:00,
2013-04-08 04:33:00,38.0,34.2,29.81,West,279,0.0,0.0,86,0.00,CLR,FEW,0.00,0.0,WeatherDisplay:10.37,2013-04-08 08:33:00,
2013-04-08 04:38:00,38.4,35.2,29.81,West,279,0.0,0.0,88,0.00,CLR,FEW,0.00,0.0,WeatherDisplay:10.37,2013-04-08 08:38:00,
2013-04-08 04:43:00,39.5,36.5,29.81,West,279,0.0,0.0,89,0.00,CLR,FEW,0.00,0.0,WeatherDisplay:10.37,2013-04-08 08:43:00,
2013-04-08 04:48:00,40.0,36.7,29.81,West,279,0.0,0.0,88,0.00,CLR,FEW,0.00,0.0,WeatherDisplay:10.37,2013-04-08 08:48:00,
2013-04-08 04:53:00,39.3,35.5,29.82,WNW,303,6.6,9.2,86,0.00,CLR,FEW,0.00,0.0,WeatherDisplay:10.37,2013-04-08 08:53:00,
2013-04-08 04:58:00,39.4,36.1,29.82,WNW,286,2.9,4.6,88,0.00,CLR,FEW,0.00,0.0,WeatherDisplay:10.37,2013-04-08 08:58:00,
2013-04-08 05:03:00,39.8,36.2,29.82,WNW,286,0.0,0.0,87,0.00,CLR,FEW,0.00,0.0,WeatherDisplay:10.37,2013-04-08 09:03:00,
2013-04-08 05:08:00,40.0,36.4,29.82,WNW,286,0.0,0.0,87,0.00,CLR,FEW,0.00,0.0,WeatherDisplay:10.37,2013-04-08 09:08:00,
2013-04-08 05:13:00,39.6,36.0,29.82,WNW,286,0.0,0.0,87,0.00,CLR,FEW,0.00,0.0,WeatherDisplay:10.37,2013-04-08 09:13:00,
2013-04-08 05:18:00,38.5,34.7,29.82,WNW,286,0.0,0.0,86,0.00,CLR,FEW,0.00,0.0,WeatherDisplay:10.37,2013-04-08 09:18:00,
2013-04-08 05:23:00,37.6,34.1,29.82,WNW,286,0.0,0.0,87,0.00,CLR,FEW,0.00,0.0,WeatherDisplay:10.37,2013-04-08 09:23:00,
2013-04-08 05:28:00,37.4,34.5,29.82,WNW,286,1.2,3.5,89,0.00,CLR,FEW,0.00,0.0,WeatherDisplay:10.37,2013-04-08 09:28:00,
2013-04-08 05:33:00,38.1,35.4,29.82,WNW,286,0.2,3.5,90,0.00,CLR,FEW,0.00,0.0,WeatherDisplay:10.37,2013-04-08 09:33:00,
2013-04-08 05:38:00,38.1,35.1,29.83,WNW,286,0.0,1.2,89,0.00,CLR,FEW,0.00,0.0,WeatherDisplay:10.37,2013-04-08 09:38:00,
2013-04-08 05:43:00,38.0,35.3,29.83,WNW,286,0.0,0.0,90,0.00,CLR,FEW,0.00,0.0,WeatherDisplay:10.37,2013-04-08 09:43:00,
2013-04-08 05:48:00,37.7,35.0,29.83,WNW,286,0.0,0.0,90,0.00,CLR,FEW,0.00,0.0,WeatherDisplay:10.37,2013-04-08 09:48:00,
2013-04-08 05:53:00,37.5,34.8,29.84,WNW,286,0.0,0.0,90,0.00,CLR,FEW,0.00,0.0,WeatherDisplay:10.37,2013-04-08 09:53:00,
2013-04-08 05:58:00,37.0,34.3,29.84,WNW,286,0.0,0.0,90,0.00,CLR,FEW,0.00,0.0,WeatherDisplay:10.37,2013-04-08 09:58:00,
2013-04-08 06:03:00,36.5,33.8,29.84,WNW,286,0.0,0.0,90,0.00,CLR,FEW,0.00,0.0,WeatherDisplay:10.37,2013-04-08 10:03:00,
2013-04-08 06:08:00,36.1,33.5,29.85,WNW,286,1.8,3.5,90,0.00,CLR,FEW,0.00,5.0,WeatherDisplay:10.37,2013-04-08 10:08:00,
2013-04-08 06:13:00,35.6,33.2,29.85,WNW,286,0.0,1.2,91,0.00,CLR,FEW,0.00,9.0,WeatherDisplay:10.37,2013-04-08 10:13:00,
2013-04-08 06:18:00,35.3,32.9,29.85,WNW,286,1.9,3.5,91,0.00,CLR,FEW,0.00,14.0,WeatherDisplay:10.37,2013-04-08 10:18:00,
2013-04-08 06:23:00,35.0,32.6,29.87,WNW,286,2.1,3.5,91,0.00,CLR,FEW,0.00,23.0,WeatherDisplay:10.37,2013-04-08 10:23:00,
2013-04-08 06:28:00,35.0,32.9,29.87,WNW,286,0.0,0.0,92,0.00,SCT,FEW,0.00,18.0,WeatherDisplay:10.37,2013-04-08 10:28:00,
2013-04-08 06:33:00,34.8,32.7,29.87,WNW,286,0.0,0.0,92,0.00,BKN,FEW,0.00,18.0,WeatherDisplay:10.37,2013-04-08 10:33:00,
2013-04-08 06:38:00,34.6,32.5,29.88,WNW,286,0.0,0.0,92,0.00,SCT,FEW,0.00,26.0,WeatherDisplay:10.37,2013-04-08 10:38:00,
2013-04-08 06:43:00,34.8,32.7,29.88,WNW,286,0.0,0.0,92,0.00,SCT,FEW,0.00,51.0,WeatherDisplay:10.37,2013-04-08 10:43:00,
2013-04-08 06:48:00,35.0,32.9,29.88,WNW,286,0.0,0.0,92,0.00,BKN,FEW,0.00,28.0,WeatherDisplay:10.37,2013-04-08 10:48:00,
2013-04-08 06:53:00,35.0,32.9,29.88,WNW,286,0.0,0.0,92,0.00,BKN,FEW,0.00,35.0,WeatherDisplay:10.37,2013-04-08 10:53:00,
2013-04-08 06:58:00,34.7,32.6,29.88,WNW,286,0.0,0.0,92,0.00,BKN,FEW,0.00,32.0,WeatherDisplay:10.37,2013-04-08 10:58:00,
2013-04-08 07:03:00,34.6,32.8,29.88,WNW,286,0.0,0.0,93,0.00,BKN,FEW,0.00,39.0,WeatherDisplay:10.37,2013-04-08 11:03:00,
2013-04-08 07:08:00,34.7,32.9,29.89,WNW,286,0.0,0.0,93,0.00,BKN,FEW,0.00,65.0,WeatherDisplay:10.37,2013-04-08 11:08:00,
2013-04-08 07:13:00,34.9,33.1,29.89,WNW,286,0.0,0.0,93,0.00,SCT,FEW,0.00,79.0,WeatherDisplay:10.37,2013-04-08 11:13:00,
2013-04-08 07:18:00,35.0,33.2,29.89,WNW,286,0.2,1.2,93,0.00,CLR,FEW,0.00,144.0,WeatherDisplay:10.37,2013-04-08 11:18:00,
2013-04-08 07:23:00,35.1,33.3,29.90,WNW,286,0.4,2.3,93,0.00,SCT,FEW,0.00,93.0,WeatherDisplay:10.37,2013-04-08 11:23:00,
2013-04-08 07:28:00,36.0,34.2,29.90,WNW,286,0.0,0.0,93,0.00,CLR,FEW,0.00,223.0,WeatherDisplay:10.37,2013-04-08 11:28:00,
2013-04-08 07:33:00,36.9,35.1,29.90,WNW,286,0.0,0.0,93,0.00,CLR,FEW,0.00,204.0,WeatherDisplay:10.37,2013-04-08 11:33:00,
2013-04-08 07:38:00,37.6,35.5,29.90,WNW,286,0.0,0.0,92,0.00,CLR,FEW,0.00,350.0,WeatherDisplay:10.37,2013-04-08 11:38:00,
2013-04-08 07:43:00,38.3,35.9,29.90,WNW,286,0.4,3.5,91,0.00,CLR,FEW,0.00,367.0,WeatherDisplay:10.37,2013-04-08 11:43:00,
2013-04-08 07:49:00,39.1,36.4,29.90,WNW,286,0.0,0.0,90,0.00,CLR,FEW,0.00,223.0,WeatherDisplay:10.37,2013-04-08 11:49:00,
2013-04-08 07:54:00,39.7,36.7,29.90,WNW,286,0.0,0.0,89,0.00,FEW,,0.00,197.0,WeatherDisplay:10.37,2013-04-08 11:54:00,
2013-04-08 07:59:00,40.3,37.0,29.90,WNW,286,0.0,0.0,88,0.00,CLR,FEW,0.00,260.0,WeatherDisplay:10.37,2013-04-08 11:59:00,
2013-04-08 08:04:00,42.4,37.9,29.90,WNW,286,0.0,0.0,84,0.00,CLR,FEW,0.00,288.0,WeatherDisplay:10.37,2013-04-08 12:04:00,
2013-04-08 08:09:00,44.2,38.4,29.89,WNW,286,0.0,0.0,80,0.00,CLR,FEW,0.00,297.0,WeatherDisplay:10.37,2013-04-08 12:09:00,
2013-04-08 08:14:00,44.6,37.8,29.89,WNW,286,0.0,0.0,77,0.00,CLR,FEW,0.00,301.0,WeatherDisplay:10.37,2013-04-08 12:14:00,
2013-04-08 08:19:00,45.5,37.3,29.89,WNW,286,1.0,3.5,73,0.00,CLR,FEW,0.00,345.0,WeatherDisplay:10.37,2013-04-08 12:19:00,
2013-04-08 08:24:00,46.4,37.1,29.91,WNW,286,0.0,1.2,70,0.00,CLR,FEW,0.00,352.0,WeatherDisplay:10.37,2013-04-08 12:24:00,
2013-04-08 08:29:00,47.1,37.1,29.91,WNW,286,1.8,4.0,68,0.00,CLR,FEW,0.00,367.0,WeatherDisplay:10.37,2013-04-08 12:29:00,
2013-04-08 08:34:00,47.4,36.2,29.91,West,271,8.4,11.5,65,0.00,CLR,FEW,0.00,297.0,WeatherDisplay:10.37,2013-04-08 12:34:00,
2013-04-08 08:40:00,47.2,35.6,29.91,NW,311,10.0,13.0,64,0.00, +SHSN,FEW,0.00,489.0,WeatherDisplay:10.37,2013-04-08 12:40:00,
2013-04-08 08:45:00,47.2,35.6,29.91,NW,304,7.8,11.5,64,0.00,CLR,FEW,0.00,478.0,WeatherDisplay:10.37,2013-04-08 12:45:00,
2013-04-08 08:50:00,47.4,35.4,29.91,WNW,297,9.5,11.5,63,0.00,CLR,FEW,0.00,476.0,WeatherDisplay:10.37,2013-04-08 12:50:00,
2013-04-08 08:55:00,47.3,35.3,29.92,WNW,299,6.0,10.0,63,0.00, +SHSN,FEW,0.00,432.0,WeatherDisplay:10.37,2013-04-08 12:55:00,
2013-04-08 09:00:00,47.3,35.3,29.92,WNW,292,9.6,13.8,63,0.00,CLR,FEW,0.00,408.0,WeatherDisplay:10.37,2013-04-08 13:00:00,
2013-04-08 09:05:00,47.3,35.3,29.92,WNW,297,9.0,12.0,63,0.00, +SHSN,FEW,0.00,482.0,WeatherDisplay:10.37,2013-04-08 13:05:00,
2013-04-08 09:10:00,47.2,35.2,29.92,WNW,301,8.0,13.0,63,0.00, +SHSN,FEW,0.00,454.0,WeatherDisplay:10.37,2013-04-08 13:10:00,
2013-04-08 09:15:00,47.1,34.7,29.92,WNW,303,9.0,13.0,62,0.00, +SHSN,FEW,0.00,462.0,WeatherDisplay:10.37,2013-04-08 13:15:00,
2013-04-08 09:20:00,47.2,34.8,29.92,WNW,297,8.0,12.0,62,0.00, +SHSN,FEW,0.00,503.0,WeatherDisplay:10.37,2013-04-08 13:20:00,
2013-04-08 09:25:00,47.5,34.7,29.92,WNW,294,6.0,13.0,61,0.00, +SHSN,FEW,0.00,527.0,WeatherDisplay:10.37,2013-04-08 13:25:00,
2013-04-08 09:30:00,48.2,35.0,29.92,WNW,298,7.7,7.7,60,0.00,CLR,FEW,0.00,483.0,WeatherDisplay:10.37,2013-04-08 13:30:00,
2013-04-08 09:35:00,48.0,34.8,29.92,NW,313,6.0,12.0,60,0.00, +SHSN,FEW,0.00,429.0,WeatherDisplay:10.37,2013-04-08 13:35:00,
2013-04-08 09:40:00,47.9,34.7,29.92,NW,316,8.0,16.0,60,0.00, +SHSN,FEW,0.00,568.0,WeatherDisplay:10.37,2013-04-08 13:40:00,
2013-04-08 09:45:00,47.7,34.5,29.92,NW,308,6.0,13.0,60,0.00, +SHSN,FEW,0.00,499.0,WeatherDisplay:10.37,2013-04-08 13:45:00,
2013-04-08 09:50:00,47.8,34.6,29.92,NW,311,7.0,11.5,60,0.00,FEW,,0.00,443.0,WeatherDisplay:10.37,2013-04-08 13:50:00,
2013-04-08 09:55:00,47.4,34.6,29.94,NW,306,6.4,9.2,61,0.00,BKN,FEW,0.00,295.0,WeatherDisplay:10.37,2013-04-08 13:55:00,
2013-04-08 10:00:00,47.3,34.5,29.94,WNW,292,5.4,8.1,61,0.00,BKN,FEW,0.00,292.0,WeatherDisplay:10.37,2013-04-08 14:00:00,
2013-04-08 10:05:00,47.7,34.9,29.94,WNW,298,3.6,6.9,61,0.00,BKN,FEW,0.00,309.0,WeatherDisplay:10.37,2013-04-08 14:05:00,
2013-04-08 10:10:00,47.7,34.9,29.94,NW,311,5.4,6.9,61,0.00,SCT,FEW,0.00,373.0,WeatherDisplay:10.37,2013-04-08 14:10:00,
2013-04-08 10:15:00,48.3,35.0,29.94,WNW,301,3.3,4.6,60,0.00,SCT,FEW,0.00,383.0,WeatherDisplay:10.37,2013-04-08 14:15:00,
2013-04-08 10:20:00,48.3,35.0,29.94,NW,309,3.3,6.9,60,0.00,SCT,FEW,0.00,394.0,WeatherDisplay:10.37,2013-04-08 14:20:00,
2013-04-08 10:25:00,48.2,35.0,29.94,WNW,298,7.3,11.5,60,0.00,SCT,FEW,0.00,427.0,WeatherDisplay:10.37,2013-04-08 14:25:00,
2013-04-08 10:30:00,48.2,34.5,29.94,WNW,302,8.7,11.5,59,0.00,SCT,FEW,0.00,468.0,WeatherDisplay:10.37,2013-04-08 14:30:00,
2013-04-08 10:35:00,48.1,34.9,29.94,NW,307,8.4,11.5,60,0.00,SCT,FEW,0.00,496.0,WeatherDisplay:10.37,2013-04-08 14:35:00,
2013-04-08 10:41:00,47.8,34.6,29.94,WNW,302,5.2,10.4,60,0.00,SCT,FEW,0.00,489.0,WeatherDisplay:10.37,2013-04-08 14:41:00,
2013-04-08 10:46:00,47.2,34.4,29.94,NNW,342,10.2,11.5,61,0.00,SCT,FEW,0.00,485.0,WeatherDisplay:10.37,2013-04-08 14:46:00,
2013-04-08 10:51:00,47.4,35.0,29.94,North,355,9.2,11.5,62,0.00,SCT,FEW,0.00,540.0,WeatherDisplay:10.37,2013-04-08 14:51:00,
2013-04-08 10:56:00,47.5,34.7,29.94,North,355,4.4,6.9,61,0.00,FEW,,0.00,557.0,WeatherDisplay:10.37,2013-04-08 14:56:00,
2013-04-08 11:01:00,47.6,34.8,29.94,WNW,296,6.1,8.1,61,0.00,SCT,FEW,0.00,496.0,WeatherDisplay:10.37,2013-04-08 15:01:00,
2013-04-08 11:06:00,47.3,34.5,29.94,WNW,290,12.2,13.8,61,0.00,SCT,FEW,0.00,540.0,WeatherDisplay:10.37,2013-04-08 15:06:00,
2013-04-08 11:11:00,47.4,34.6,29.96,WNW,294,8.3,9.2,61,0.00,CLR,FEW,0.00,744.0,WeatherDisplay:10.37,2013-04-08 15:11:00,
2013-04-08 11:16:00,48.2,35.0,29.96,NW,306,6.1,9.2,60,0.00,CLR,FEW,0.00,696.0,WeatherDisplay:10.37,2013-04-08 15:16:00,
2013-04-08 11:21:00,48.5,35.2,29.96,WNW,296,4.2,5.8,60,0.00,SCT,FEW,0.00,575.0,WeatherDisplay:10.37,2013-04-08 15:21:00,
2013-04-08 11:26:00,48.7,35.0,29.95,WNW,300,7.8,11.5,59,0.00,BKN,FEW,0.00,373.0,WeatherDisplay:10.37,2013-04-08 15:26:00,
2013-04-08 11:31:00,48.3,35.0,29.95,WNW,299,9.9,11.5,60,0.00,SCT,FEW,0.00,566.0,WeatherDisplay:10.37,2013-04-08 15:31:00,
2013-04-08 11:37:00,48.6,35.3,29.97,NW,311,6.9,10.4,60,0.00,CLR,FEW,0.00,761.0,WeatherDisplay:10.37,2013-04-08 15:37:00,
2013-04-08 11:42:00,48.5,34.8,29.97,NW,304,6.1,10.4,59,0.00,CLR,FEW,0.00,791.0,WeatherDisplay:10.37,2013-04-08 15:42:00,
2013-04-08 11:47:00,49.3,35.1,29.97,WNW,290,4.0,4.0,58,0.00,CLR,FEW,0.00,789.0,WeatherDisplay:10.37,2013-04-08 15:47:00,
2013-04-08 11:52:00,49.7,35.1,29.97,NW,311,5.5,5.8,57,0.00,CLR,FEW,0.00,795.0,WeatherDisplay:10.37,2013-04-08 15:52:00,
2013-04-08 11:57:00,50.0,34.9,29.97,WNW,288,7.3,10.0,56,0.00,CLR,FEW,0.00,796.0,WeatherDisplay:10.37,2013-04-08 15:57:00,
2013-04-08 12:03:00,49.4,34.3,29.97,WNW,298,5.0,10.4,56,0.00,CLR,FEW,0.00,795.0,WeatherDisplay:10.37,2013-04-08 16:03:00,
2013-04-08 12:08:00,49.8,35.2,29.97,NNW,327,5.3,10.4,57,0.00,CLR,FEW,0.00,795.0,WeatherDisplay:10.37,2013-04-08 16:08:00,
2013-04-08 12:13:00,49.7,35.1,29.97,NNW,334,6.2,10.4,57,0.00,CLR,FEW,0.00,793.0,WeatherDisplay:10.37,2013-04-08 16:13:00,
2013-04-08 12:18:00,49.6,34.5,29.97,NW,318,4.0,10.4,56,0.00,CLR,FEW,0.00,791.0,WeatherDisplay:10.37,2013-04-08 16:18:00,
2013-04-08 12:23:00,49.9,34.8,29.97,NW,315,9.1,12.7,56,0.00,CLR,FEW,0.00,789.0,WeatherDisplay:10.37,2013-04-08 16:23:00,
2013-04-08 12:28:00,49.4,34.3,29.97,NW,310,4.3,8.1,56,0.00,CLR,FEW,0.00,788.0,WeatherDisplay:10.37,2013-04-08 16:28:00,
2013-04-08 12:33:00,50.1,34.5,29.97,NNE,22,1.7,4.6,55,0.00,CLR,FEW,0.00,788.0,WeatherDisplay:10.37,2013-04-08 16:33:00,
2013-04-08 12:38:00,50.0,34.0,29.97,WNW,301,7.8,12.7,54,0.00,CLR,FEW,0.00,788.0,WeatherDisplay:10.37,2013-04-08 16:38:00,
2013-04-08 12:43:00,49.8,34.3,29.97,NW,316,11.0,15.0,55,0.00,CLR,FEW,0.00,784.0,WeatherDisplay:10.37,2013-04-08 16:43:00,
2013-04-08 12:48:00,49.7,34.2,29.97,WNW,300,5.3,6.0,55,0.00,CLR,FEW,0.00,780.0,WeatherDisplay:10.37,2013-04-08 16:48:00,
2013-04-08 12:53:00,50.3,33.8,29.97,WNW,295,3.3,5.8,53,0.00,CLR,FEW,0.00,779.0,WeatherDisplay:10.37,2013-04-08 16:53:00,
2013-04-08 12:58:00,50.4,34.4,29.97,NW,324,8.9,11.5,54,0.00,CLR,FEW,0.00,775.0,WeatherDisplay:10.37,2013-04-08 16:58:00,
2013-04-08 13:03:00,50.8,33.8,29.97,NW,325,1.5,6.9,52,0.00,CLR,FEW,0.00,770.0,WeatherDisplay:10.37,2013-04-08 17:03:00,
2013-04-08 13:08:00,51.4,34.3,29.97,NW,305,3.5,3.5,52,0.00,CLR,FEW,0.00,768.0,WeatherDisplay:10.37,2013-04-08 17:08:00,
2013-04-08 13:13:00,51.5,34.0,29.97,WNW,292,5.8,8.1,51,0.00,CLR,FEW,0.00,765.0,WeatherDisplay:10.37,2013-04-08 17:13:00,
2013-04-08 13:18:00,50.5,34.0,29.97,WNW,296,4.3,9.0,53,0.00,CLR,FEW,0.00,758.0,WeatherDisplay:10.37,2013-04-08 17:18:00,
2013-04-08 13:23:00,51.0,34.0,29.97,NNW,329,5.8,8.1,52,0.00,CLR,FEW,0.00,754.0,WeatherDisplay:10.37,2013-04-08 17:23:00,
2013-04-08 13:28:00,51.0,34.0,29.97,NW,304,7.9,12.7,52,0.00,CLR,FEW,0.00,751.0,WeatherDisplay:10.37,2013-04-08 17:28:00,
2013-04-08 13:33:00,51.4,34.3,29.97,WNW,294,5.0,8.0,52,0.00,CLR,FEW,0.00,745.0,WeatherDisplay:10.37,2013-04-08 17:33:00,
2013-04-08 13:38:00,51.9,33.8,29.97,NW,304,4.2,8.1,50,0.00,CLR,FEW,0.00,740.0,WeatherDisplay:10.37,2013-04-08 17:38:00,
2013-04-08 13:44:00,51.9,33.8,29.97,NE,48,5.8,10.4,50,0.00,CLR,FEW,0.00,735.0,WeatherDisplay:10.37,2013-04-08 17:44:00,
2013-04-08 13:49:00,51.9,33.8,29.97,NW,319,8.6,11.5,50,0.00,CLR,FEW,0.00,728.0,WeatherDisplay:10.37,2013-04-08 17:49:00,
2013-04-08 13:54:00,51.4,33.9,29.97,WNW,292,5.3,9.2,51,0.00,CLR,FEW,0.00,721.0,WeatherDisplay:10.37,2013-04-08 17:54:00,
2013-04-08 13:59:00,50.8,33.8,29.97,WNW,300,5.5,6.9,52,0.00,CLR,FEW,0.00,715.0,WeatherDisplay:10.37,2013-04-08 17:59:00,
2013-04-08 14:04:00,51.7,34.1,29.97,WNW,302,4.4,5.8,51,0.00,CLR,FEW,0.00,707.0,WeatherDisplay:10.37,2013-04-08 18:04:00,
2013-04-08 14:09:00,51.5,33.5,29.97,NW,310,8.5,11.5,50,0.00,CLR,FEW,0.00,701.0,WeatherDisplay:10.37,2013-04-08 18:09:00,
2013-04-08 14:14:00,51.5,34.0,29.97,WNW,296,7.0,11.5,51,0.00,CLR,FEW,0.00,693.0,WeatherDisplay:10.37,2013-04-08 18:14:00,
2013-04-08 14:19:00,52.1,34.0,29.97,North,9,2.8,5.8,50,0.00,CLR,FEW,0.00,682.0,WeatherDisplay:10.37,2013-04-08 18:19:00,
2013-04-08 14:24:00,52.5,33.9,29.97,NW,306,0.6,2.3,49,0.00,CLR,FEW,0.00,677.0,WeatherDisplay:10.37,2013-04-08 18:24:00,
2013-04-08 14:29:00,52.9,34.2,29.97,NE,48,0.0,0.0,49,0.00,CLR,FEW,0.00,670.0,WeatherDisplay:10.37,2013-04-08 18:29:00,
2013-04-08 14:34:00,52.4,33.8,29.97,WNW,303,1.5,6.9,49,0.00,CLR,FEW,0.00,663.0,WeatherDisplay:10.37,2013-04-08 18:34:00,
2013-04-08 14:39:00,52.0,33.4,29.97,WNW,290,7.8,10.4,49,0.00,CLR,FEW,0.00,650.0,WeatherDisplay:10.37,2013-04-08 18:39:00,
2013-04-08 14:44:00,52.3,33.2,29.97,NNW,343,3.6,10.4,48,0.00,CLR,FEW,0.00,640.0,WeatherDisplay:10.37,2013-04-08 18:44:00,
2013-04-08 14:49:00,52.9,33.2,29.97,NE,38,6.9,9.0,47,0.00,CLR,FEW,0.00,631.0,WeatherDisplay:10.37,2013-04-08 18:49:00,
2013-04-08 14:54:00,52.5,32.8,29.97,WNW,302,4.3,5.0,47,0.00,CLR,FEW,0.00,621.0,WeatherDisplay:10.37,2013-04-08 18:54:00,
2013-04-08 15:00:00,52.9,33.2,29.97,NW,323,2.0,7.0,47,0.00, +SHSN,FEW,0.00,613.0,WeatherDisplay:10.37,2013-04-08 19:00:00,
2013-04-08 15:05:00,53.2,33.5,29.97,NW,319,2.4,2.4,47,0.00,CLR,FEW,0.00,599.0,WeatherDisplay:10.37,2013-04-08 19:05:00,
2013-04-08 15:10:00,53.0,33.3,29.96,NW,309,7.0,10.0,47,0.00, +SHSN,FEW,0.00,589.0,WeatherDisplay:10.37,2013-04-08 19:10:00,
2013-04-08 15:15:00,53.8,33.5,29.96,WNW,297,0.0,3.0,46,0.00, +SHSN,FEW,0.00,494.0,WeatherDisplay:10.37,2013-04-08 19:15:00,
2013-04-08 15:19:00,52.9,33.2,29.96,NW,314,6.0,10.0,47,0.00, +SHSN,FEW,0.00,427.0,WeatherDisplay:10.37,2013-04-08 19:19:00,
2013-04-08 15:24:00,53.2,32.9,29.96,NW,314,6.0,7.0,46,0.00, +SHSN,FEW,0.00,396.0,WeatherDisplay:10.37,2013-04-08 19:24:00,
2013-04-08 15:30:00,53.3,33.0,29.96,NW,312,0.2,3.5,46,0.00,SCT,FEW,0.00,371.0,WeatherDisplay:10.37,2013-04-08 19:30:00,
2013-04-08 15:35:00,53.8,33.0,29.96,NW,312,0.0,2.0,45,0.00, +SHSN,FEW,0.00,394.0,WeatherDisplay:10.37,2013-04-08 19:35:00,
2013-04-08 15:40:00,54.3,33.4,29.95,NW,312,0.0,0.0,45,0.00, +SHSN,FEW,0.00,338.0,WeatherDisplay:10.37,2013-04-08 19:40:00,
2013-04-08 15:45:00,54.0,33.1,29.95,NW,312,0.0,1.0,45,0.00, +SHSN,FEW,0.00,271.0,WeatherDisplay:10.37,2013-04-08 19:45:00,
2013-04-08 15:50:00,54.2,33.3,29.95,NNE,25,0.1,1.2,45,0.00,BKN,FEW,0.00,176.0,WeatherDisplay:10.37,2013-04-08 19:50:00,
2013-04-08 15:55:00,54.5,33.0,29.95,East,96,2.9,6.9,44,0.00,FEW,,0.00,413.0,WeatherDisplay:10.37,2013-04-08 19:55:00,
2013-04-08 16:00:00,54.3,33.4,29.95,NE,52,2.6,5.8,45,0.00,FEW,,0.00,418.0,WeatherDisplay:10.37,2013-04-08 20:00:00,
2013-04-08 16:05:00,54.0,33.1,29.95,NNE,33,0.7,3.5,45,0.00,FEW,,0.00,387.0,WeatherDisplay:10.37,2013-04-08 20:05:00,
2013-04-08 16:10:00,53.9,33.0,29.95,NE,42,3.7,4.6,45,0.00,SCT,FEW,0.00,341.0,WeatherDisplay:10.37,2013-04-08 20:10:00,
2013-04-08 16:15:00,54.2,32.7,29.95,NNE,13,1.3,2.3,44,0.00,BKN,FEW,0.00,223.0,WeatherDisplay:10.37,2013-04-08 20:15:00,
2013-04-08 16:20:00,54.1,33.2,29.95,NW,304,4.9,5.8,45,0.00,SCT,FEW,0.00,320.0,WeatherDisplay:10.37,2013-04-08 20:20:00,
2013-04-08 16:25:00,54.2,33.3,29.96,WNW,303,1.6,2.3,45,0.00,SCT,FEW,0.00,223.0,WeatherDisplay:10.37,2013-04-08 20:25:00,
2013-04-08 16:30:00,54.6,33.1,29.96,NW,304,1.2,3.0,44,0.00,BKN,FEW,0.00,148.0,WeatherDisplay:10.37,2013-04-08 20:30:00,
2013-04-08 16:35:00,54.2,32.7,29.96,NW,304,2.0,3.5,44,0.00,BKN,FEW,0.00,174.0,WeatherDisplay:10.37,2013-04-08 20:35:00,
2013-04-08 16:40:00,54.7,33.8,29.97,NW,304,2.2,3.5,45,0.00,BKN,FEW,0.00,234.0,WeatherDisplay:10.37,2013-04-08 20:40:00,
2013-04-08 16:45:00,54.8,32.7,29.97,NW,304,1.6,2.3,43,0.00,FEW,,0.00,334.0,WeatherDisplay:10.37,2013-04-08 20:45:00,
2013-04-08 16:50:00,55.0,32.9,29.97,NW,304,0.0,0.0,43,0.00,SCT,FEW,0.00,285.0,WeatherDisplay:10.37,2013-04-08 20:50:00,
2013-04-08 16:55:00,54.8,33.3,29.97,NW,304,0.0,0.0,44,0.00,SCT,FEW,0.00,192.0,WeatherDisplay:10.37,2013-04-08 20:55:00,
2013-04-08 17:00:00,54.3,32.8,29.97,ENE,70,1.6,2.3,44,0.00,BKN,FEW,0.00,163.0,WeatherDisplay:10.37,2013-04-08 21:00:00,
2013-04-08 17:05:00,54.4,32.3,29.97,ENE,65,2.2,4.6,43,0.00,BKN,FEW,0.00,141.0,WeatherDisplay:10.37,2013-04-08 21:05:00,
2013-04-08 17:10:00,54.5,33.0,29.97,NE,49,1.7,3.5,44,0.00,BKN,FEW,0.00,100.0,WeatherDisplay:10.37,2013-04-08 21:10:00,
2013-04-08 17:15:00,54.2,32.7,29.97,ENE,73,3.9,4.6,44,0.00,SCT,FEW,0.00,174.0,WeatherDisplay:10.37,2013-04-08 21:15:00,
2013-04-08 17:20:00,54.4,32.3,29.97,ENE,74,2.0,3.5,43,0.00,SCT,FEW,0.00,123.0,WeatherDisplay:10.37,2013-04-08 21:20:00,
2013-04-08 17:25:00,54.4,32.9,29.97,ENE,76,1.7,3.5,44,0.00,BKN,FEW,0.00,93.0,WeatherDisplay:10.37,2013-04-08 21:25:00,
2013-04-08 17:30:00,54.6,33.1,29.97,East,83,0.6,2.3,44,0.00,SCT,FEW,0.00,142.0,WeatherDisplay:10.37,2013-04-08 21:30:00,
2013-04-08 17:35:00,54.4,32.3,29.97,ENE,65,3.0,5.8,43,0.00,BKN,FEW,0.00,107.0,WeatherDisplay:10.37,2013-04-08 21:35:00,
2013-04-08 17:40:00,54.4,32.9,29.97,NNE,19,3.6,6.9,44,0.00,BKN,FEW,0.00,67.0,WeatherDisplay:10.37,2013-04-08 21:40:00,
2013-04-08 17:45:00,54.2,32.7,29.97,NNE,22,0.0,0.0,44,0.00,BKN,FEW,0.00,123.0,WeatherDisplay:10.37,2013-04-08 21:45:00,
2013-04-08 17:50:00,54.1,32.6,29.97,ENE,66,1.1,3.5,44,0.00,BKN,FEW,0.00,104.0,WeatherDisplay:10.37,2013-04-08 21:50:00,
2013-04-08 17:55:00,54.2,32.2,29.97,NE,42,1.3,3.5,43,0.00,BKN,FEW,0.00,67.0,WeatherDisplay:10.37,2013-04-08 21:55:00,
2013-04-08 18:00:00,54.1,32.6,29.97,NE,42,0.3,3.5,44,0.00,BKN,FEW,0.00,67.0,WeatherDisplay:10.37,2013-04-08 22:00:00,
2013-04-08 18:05:00,54.1,32.6,29.97,NE,44,0.0,0.0,44,0.00,BKN,FEW,0.00,56.0,WeatherDisplay:10.37,2013-04-08 22:05:00,
2013-04-08 18:10:00,53.8,33.5,29.98,NE,44,0.0,0.0,46,0.00,BKN,FEW,0.00,39.0,WeatherDisplay:10.37,2013-04-08 22:10:00,
2013-04-08 18:15:00,53.3,32.5,29.98,NE,44,0.6,1.2,45,0.00,BKN,FEW,0.00,33.0,WeatherDisplay:10.37,2013-04-08 22:15:00,
2013-04-08 18:20:00,53.3,32.5,29.98,NE,44,0.6,2.3,45,0.00,BKN,FEW,0.00,32.0,WeatherDisplay:10.37,2013-04-08 22:20:00,
2013-04-08 18:25:00,53.3,33.0,29.99,NE,34,0.7,2.3,46,0.00,BKN,FEW,0.00,33.0,WeatherDisplay:10.37,2013-04-08 22:25:00,
2013-04-08 18:30:00,51.9,32.8,29.99,NW,304,2.2,3.0,48,0.00,BKN,FEW,0.00,37.0,WeatherDisplay:10.37,2013-04-08 22:30:00,
2013-04-08 18:35:00,51.3,32.8,29.99,NW,304,0.2,1.2,49,0.00,BKN,FEW,0.00,42.0,WeatherDisplay:10.37,2013-04-08 22:35:00,
2013-04-08 18:40:00,51.0,33.0,29.97,WNW,303,0.1,1.2,50,0.00,SCT,FEW,0.00,46.0,WeatherDisplay:10.37,2013-04-08 22:40:00,
2013-04-08 18:46:00,51.0,33.5,29.97,NW,304,0.0,0.0,51,0.00,SCT,FEW,0.00,37.0,WeatherDisplay:10.37,2013-04-08 22:46:00,
2013-04-08 18:51:00,50.1,34.5,29.97,NW,304,0.0,0.0,55,0.00,SCT,FEW,0.00,28.0,WeatherDisplay:10.37,2013-04-08 22:51:00,
2013-04-08 18:56:00,49.2,34.6,29.98,NW,304,0.0,0.0,57,0.00,SCT,FEW,0.00,25.0,WeatherDisplay:10.37,2013-04-08 22:56:00,
2013-04-08 19:01:00,48.5,34.4,29.98,NW,304,0.0,0.0,58,0.00,SCT,FEW,0.00,21.0,WeatherDisplay:10.37,2013-04-08 23:01:00,
2013-04-08 19:06:00,47.1,34.7,29.98,WNW,303,0.0,0.0,62,0.00,SCT,FEW,0.00,14.0,WeatherDisplay:10.37,2013-04-08 23:06:00,
2013-04-08 19:11:00,46.3,34.8,29.99,NW,304,0.0,0.0,64,0.00,SCT,FEW,0.00,9.0,WeatherDisplay:10.37,2013-04-08 23:11:00,
2013-04-08 19:16:00,45.0,33.9,29.99,NW,304,0.0,0.0,65,0.00,CLR,FEW,0.00,5.0,WeatherDisplay:10.37,2013-04-08 23:16:00,
2013-04-08 19:21:00,45.0,34.3,29.99,NW,304,0.0,0.0,66,0.00,CLR,FEW,0.00,0.0,WeatherDisplay:10.37,2013-04-08 23:21:00,
2013-04-08 19:26:00,44.7,34.0,29.99,WNW,303,0.0,0.0,66,0.00,CLR,FEW,0.00,0.0,WeatherDisplay:10.37,2013-04-08 23:26:00,
2013-04-08 19:32:00,44.2,33.9,29.99,NW,304,0.0,0.0,67,0.00,CLR,FEW,0.00,0.0,WeatherDisplay:10.37,2013-04-08 23:32:00,
2013-04-08 19:37:00,43.5,34.0,30.00,NW,304,0.0,0.0,69,0.00,CLR,FEW,0.00,0.0,WeatherDisplay:10.37,2013-04-08 23:37:00,
2013-04-08 19:42:00,42.7,34.6,30.00,WNW,303,0.0,0.0,73,0.00,CLR,FEW,0.00,0.0,WeatherDisplay:10.37,2013-04-08 23:42:00,
2013-04-08 19:47:00,42.1,34.7,30.00,NW,304,0.0,0.0,75,0.00,CLR,FEW,0.00,0.0,WeatherDisplay:10.37,2013-04-08 23:47:00,
2013-04-08 19:52:00,41.4,34.4,30.01,WNW,303,0.0,0.0,76,0.00,CLR,FEW,0.00,0.0,WeatherDisplay:10.37,2013-04-08 23:52:00,
2013-04-08 19:57:00,41.3,35.0,30.01,NW,304,0.0,0.0,78,0.00,CLR,FEW,0.00,0.0,WeatherDisplay:10.37,2013-04-08 23:57:00,
2013-04-08 20:02:00,41.2,34.2,30.01,NW,304,0.0,0.0,76,0.00,CLR,FEW,0.00,0.0,WeatherDisplay:10.37,2013-04-09 00:02:00,
2013-04-08 20:07:00,41.2,33.5,30.02,NW,304,0.0,0.0,74,0.00,CLR,FEW,0.00,0.0,WeatherDisplay:10.37,2013-04-09 00:07:00,
2013-04-08 20:12:00,40.9,33.2,30.02,NW,304,0.0,0.0,74,0.00,CLR,FEW,0.00,0.0,WeatherDisplay:10.37,2013-04-09 00:12:00,
2013-04-08 20:17:00,40.7,33.1,30.02,NW,304,0.0,0.0,74,0.00,CLR,FEW,0.00,0.0,WeatherDisplay:10.37,2013-04-09 00:17:00,
2013-04-08 20:22:00,40.5,32.9,30.02,NW,304,0.0,0.0,74,0.00,CLR,FEW,0.00,0.0,WeatherDisplay:10.37,2013-04-09 00:22:00,
2013-04-08 20:27:00,40.1,32.8,30.02,NW,304,0.0,0.0,75,0.00,CLR,FEW,0.00,0.0,WeatherDisplay:10.37,2013-04-09 00:27:00,
2013-04-08 20:32:00,39.8,32.8,30.02,NW,304,0.0,0.0,76,0.00,CLR,FEW,0.00,0.0,WeatherDisplay:10.37,2013-04-09 00:32:00,
2013-04-08 20:37:00,39.7,32.8,30.02,NW,304,0.0,0.0,76,0.00,CLR,FEW,0.00,0.0,WeatherDisplay:10.37,2013-04-09 00:37:00,
2013-04-08 20:42:00,39.4,32.8,30.02,NW,304,0.0,0.0,77,0.00,CLR,FEW,0.00,0.0,WeatherDisplay:10.37,2013-04-09 00:42:00,
2013-04-08 20:47:00,39.1,33.1,30.02,WNW,303,0.0,0.0,79,0.00,CLR,FEW,0.00,0.0,WeatherDisplay:10.37,2013-04-09 00:47:00,
2013-04-08 20:52:00,38.5,32.9,30.03,NW,304,0.0,0.0,80,0.00,CLR,FEW,0.00,0.0,WeatherDisplay:10.37,2013-04-09 00:52:00,
2013-04-08 20:57:00,38.1,33.4,30.03,NW,304,0.0,0.0,83,0.00,CLR,FEW,0.00,0.0,WeatherDisplay:10.37,2013-04-09 00:57:00,
2013-04-08 21:02:00,38.1,33.1,30.03,WNW,303,0.0,0.0,82,0.00,CLR,FEW,0.00,0.0,WeatherDisplay:10.37,2013-04-09 01:02:00,
2013-04-08 21:07:00,38.0,33.3,30.05,NW,304,0.0,0.0,83,0.00,CLR,FEW,0.00,0.0,WeatherDisplay:10.37,2013-04-09 01:07:00,
2013-04-08 21:12:00,37.5,32.8,30.05,WNW,303,0.0,0.0,83,0.00,CLR,FEW,0.00,0.0,WeatherDisplay:10.37,2013-04-09 01:12:00,
2013-04-08 21:17:00,37.4,33.0,30.05,WNW,303,0.0,1.2,84,0.00,CLR,FEW,0.00,0.0,WeatherDisplay:10.37,2013-04-09 01:17:00,
2013-04-08 21:22:00,37.2,32.8,30.05,NW,304,0.0,0.0,84,0.00,CLR,FEW,0.00,0.0,WeatherDisplay:10.37,2013-04-09 01:22:00,
2013-04-08 21:27:00,37.3,33.2,30.05,WNW,303,0.0,0.0,85,0.00,CLR,FEW,0.00,0.0,WeatherDisplay:10.37,2013-04-09 01:27:00,
2013-04-08 21:33:00,37.0,32.6,30.05,NW,304,0.0,0.0,84,0.00,CLR,FEW,0.00,0.0,WeatherDisplay:10.37,2013-04-09 01:33:00,
2013-04-08 21:38:00,36.9,32.8,30.06,NW,304,1.2,2.3,85,0.00,CLR,FEW,0.00,0.0,WeatherDisplay:10.37,2013-04-09 01:38:00,
2013-04-08 21:43:00,36.7,32.3,30.06,WNW,303,0.1,1.2,84,0.00,CLR,FEW,0.00,0.0,WeatherDisplay:10.37,2013-04-09 01:43:00,
2013-04-08 21:48:00,36.7,32.3,30.06,NW,304,0.0,0.0,84,0.00,CLR,FEW,0.00,0.0,WeatherDisplay:10.37,2013-04-09 01:48:00,
2013-04-08 21:53:00,36.9,32.5,30.06,WNW,303,0.0,0.0,84,0.00,CLR,FEW,0.00,0.0,WeatherDisplay:10.37,2013-04-09 01:53:00,
2013-04-08 21:58:00,36.9,32.5,30.06,NW,304,0.0,0.0,84,0.00,CLR,FEW,0.00,0.0,WeatherDisplay:10.37,2013-04-09 01:58:00,
2013-04-08 22:03:00,36.9,32.5,30.06,NW,304,0.1,2.3,84,0.00,CLR,FEW,0.00,0.0,WeatherDisplay:10.37,2013-04-09 02:03:00,
2013-04-08 22:08:00,36.8,32.4,30.06,NW,304,0.0,0.0,84,0.00,CLR,FEW,0.00,0.0,WeatherDisplay:10.37,2013-04-09 02:08:00,
2013-04-08 22:13:00,36.8,32.4,30.06,NW,304,0.0,0.0,84,0.00,CLR,FEW,0.00,0.0,WeatherDisplay:10.37,2013-04-09 02:13:00,
2013-04-08 22:18:00,36.9,32.5,30.06,NW,304,0.0,0.0,84,0.00,CLR,FEW,0.00,0.0,WeatherDisplay:10.37,2013-04-09 02:18:00,
2013-04-08 22:23:00,36.8,32.1,30.06,WNW,303,0.0,0.0,83,0.00,CLR,FEW,0.00,0.0,WeatherDisplay:10.37,2013-04-09 02:23:00,
2013-04-08 22:28:00,36.9,32.5,30.06,WNW,303,0.0,0.0,84,0.00,CLR,FEW,0.00,0.0,WeatherDisplay:10.37,2013-04-09 02:28:00,
2013-04-08 22:34:00,36.7,32.6,30.06,NW,304,0.0,0.0,85,0.00,CLR,FEW,0.00,0.0,WeatherDisplay:10.37,2013-04-09 02:34:00,
2013-04-08 22:39:00,36.5,32.4,30.05,NW,304,0.0,0.0,85,0.00,CLR,FEW,0.00,0.0,WeatherDisplay:10.37,2013-04-09 02:39:00,
2013-04-08 22:44:00,36.5,32.4,30.05,NW,304,0.0,0.0,85,0.00,CLR,FEW,0.00,0.0,WeatherDisplay:10.37,2013-04-09 02:44:00,
2013-04-08 22:49:00,36.5,32.4,30.05,NW,304,0.0,0.0,85,0.00,CLR,FEW,0.00,0.0,WeatherDisplay:10.37,2013-04-09 02:49:00,
2013-04-08 22:54:00,36.3,32.2,30.05,WNW,303,0.0,0.0,85,0.00,CLR,FEW,0.00,0.0,WeatherDisplay:10.37,2013-04-09 02:54:00,
2013-04-08 22:59:00,36.2,32.1,30.05,NW,304,0.0,0.0,85,0.00,CLR,FEW,0.00,0.0,WeatherDisplay:10.37,2013-04-09 02:59:00,
2013-04-08 23:04:00,36.2,32.1,30.05,NW,304,0.0,0.0,85,0.00,CLR,FEW,0.00,0.0,WeatherDisplay:10.37,2013-04-09 03:04:00,
2013-04-08 23:10:00,36.3,32.2,30.05,NW,304,0.0,0.0,85,0.00,CLR,FEW,0.00,0.0,WeatherDisplay:10.37,2013-04-09 03:10:00,
2013-04-08 23:15:00,36.3,32.2,30.05,WNW,303,0.0,0.0,85,0.00,CLR,FEW,0.00,0.0,WeatherDisplay:10.37,2013-04-09 03:15:00,
2013-04-08 23:20:00,36.4,32.6,30.05,NW,304,0.0,0.0,86,0.00, +SHSN,FEW,0.00,0.0,WeatherDisplay:10.37,2013-04-09 03:20:00,
2013-04-08 23:25:00,36.2,32.4,30.05,WNW,303,0.0,0.0,86,0.00,CLR,FEW,0.00,0.0,WeatherDisplay:10.37,2013-04-09 03:25:00,
2013-04-08 23:30:00,36.1,32.3,30.05,WNW,303,0.0,0.0,86,0.00,CLR,FEW,0.00,0.0,WeatherDisplay:10.37,2013-04-09 03:30:00,
2013-04-08 23:35:00,36.1,32.3,30.05,NW,304,0.0,0.0,86,0.00,CLR,FEW,0.00,0.0,WeatherDisplay:10.37,2013-04-09 03:35:00,
2013-04-08 23:40:00,36.2,32.4,30.05,WNW,303,0.0,0.0,86,0.00,CLR,FEW,0.00,0.0,WeatherDisplay:10.37,2013-04-09 03:40:00,
2013-04-08 23:45:00,36.1,32.3,30.05,NW,304,0.0,0.0,86,0.00,CLR,FEW,0.00,0.0,WeatherDisplay:10.37,2013-04-09 03:45:00,
2013-04-08 23:50:00,36.1,32.6,30.05,WNW,303,0.0,0.0,87,0.00,CLR,FEW,0.00,0.0,WeatherDisplay:10.37,2013-04-09 03:50:00,
2013-04-08 23:55:00,36.0,32.5,30.05,NW,304,0.0,0.0,87,0.00,CLR,FEW,0.00,0.0,WeatherDisplay:10.37,2013-04-09 03:55:00,